sensor_id;sensor_type;location;lat;lon;timestamp;temperature;humidity
44705;DHT22;30431;48.520;9.046;2023-11-22T00:01:32;8.60;99.90
44705;DHT22;30431;48.520;9.046;2023-11-22T00:04:01;8.50;99.90
44705;DHT22;30431;48.520;9.046;2023-11-22T00:06:31;8.50;99.90
44705;DHT22;30431;48.520;9.046;2023-11-22T00:08:58;8.50;99.90
44705;DHT22;30431;48.520;9.046;2023-11-22T00:11:25;8.50;99.90
44705;DHT22;30431;48.520;9.046;2023-11-22T00:13:57;8.50;99.90
44705;DHT22;30431;48.520;9.046;2023-11-22T00:16:26;8.60;99.90
44705;DHT22;30431;48.520;9.046;2023-11-22T00:18:59;8.60;99.90
44705;DHT22;30431;48.520;9.046;2023-11-22T00:21:28;8.60;99.90
44705;DHT22;30431;48.520;9.046;2023-11-22T00:23:56;8.60;99.90
44705;DHT22;30431;48.520;9.046;2023-11-22T00:26:23;8.60;99.90
44705;DHT22;30431;48.520;9.046;2023-11-22T00:28:58;8.50;99.90
44705;DHT22;30431;48.520;9.046;2023-11-22T00:31:27;8.40;99.90
44705;DHT22;30431;48.520;9.046;2023-11-22T00:33:56;8.50;99.90
44705;DHT22;30431;48.520;9.046;2023-11-22T00:36:25;8.50;99.90
44705;DHT22;30431;48.520;9.046;2023-11-22T00:38:52;8.50;99.90
44705;DHT22;30431;48.520;9.046;2023-11-22T00:41:19;8.50;99.90
44705;DHT22;30431;48.520;9.046;2023-11-22T00:43:47;8.50;99.90
44705;DHT22;30431;48.520;9.046;2023-11-22T00:46:14;8.50;99.90
44705;DHT22;30431;48.520;9.046;2023-11-22T00:48:44;8.50;99.90
44705;DHT22;30431;48.520;9.046;2023-11-22T00:51:13;8.50;99.90
44705;DHT22;30431;48.520;9.046;2023-11-22T00:53:40;8.50;99.90
44705;DHT22;30431;48.520;9.046;2023-11-22T00:56:08;8.50;99.90
44705;DHT22;30431;48.520;9.046;2023-11-22T00:58:37;8.50;99.90
44705;DHT22;30431;48.520;9.046;2023-11-22T01:01:04;8.40;99.90
44705;DHT22;30431;48.520;9.046;2023-11-22T01:03:32;8.50;99.90
44705;DHT22;30431;48.520;9.046;2023-11-22T01:06:01;8.50;99.90
44705;DHT22;30431;48.520;9.046;2023-11-22T01:08:28;8.50;99.90
44705;DHT22;30431;48.520;9.046;2023-11-22T01:10:55;8.40;99.90
44705;DHT22;30431;48.520;9.046;2023-11-22T01:13:24;8.50;99.90
44705;DHT22;30431;48.520;9.046;2023-11-22T01:15:51;8.50;99.90
44705;DHT22;30431;48.520;9.046;2023-11-22T01:18:18;8.50;99.90
44705;DHT22;30431;48.520;9.046;2023-11-22T01:20:46;8.50;99.90
44705;DHT22;30431;48.520;9.046;2023-11-22T01:23:18;8.50;99.90
44705;DHT22;30431;48.520;9.046;2023-11-22T01:25:45;8.40;99.90
44705;DHT22;30431;48.520;9.046;2023-11-22T01:28:12;8.20;99.90
44705;DHT22;30431;48.520;9.046;2023-11-22T01:30:39;7.80;99.90
44705;DHT22;30431;48.520;9.046;2023-11-22T01:33:05;7.60;99.90
44705;DHT22;30431;48.520;9.046;2023-11-22T01:35:35;7.50;99.90
44705;DHT22;30431;48.520;9.046;2023-11-22T01:38:02;7.40;99.90
44705;DHT22;30431;48.520;9.046;2023-11-22T01:40:32;7.40;99.90
44705;DHT22;30431;48.520;9.046;2023-11-22T01:42:58;7.20;99.90
44705;DHT22;30431;48.520;9.046;2023-11-22T01:45:28;7.20;99.90
44705;DHT22;30431;48.520;9.046;2023-11-22T01:47:55;7.20;99.90
44705;DHT22;30431;48.520;9.046;2023-11-22T01:50:27;7.20;99.90
44705;DHT22;30431;48.520;9.046;2023-11-22T01:52:56;7.20;99.90
44705;DHT22;30431;48.520;9.046;2023-11-22T01:55:23;7.10;99.90
44705;DHT22;30431;48.520;9.046;2023-11-22T01:57:50;7.00;99.90
44705;DHT22;30431;48.520;9.046;2023-11-22T02:00:18;6.90;99.90
44705;DHT22;30431;48.520;9.046;2023-11-22T02:02:48;6.90;99.90
44705;DHT22;30431;48.520;9.046;2023-11-22T02:05:16;6.80;99.90
44705;DHT22;30431;48.520;9.046;2023-11-22T02:07:45;6.80;99.90
44705;DHT22;30431;48.520;9.046;2023-11-22T02:10:13;6.80;99.90
44705;DHT22;30431;48.520;9.046;2023-11-22T02:12:43;6.70;99.90
44705;DHT22;30431;48.520;9.046;2023-11-22T02:15:15;6.70;99.90
44705;DHT22;30431;48.520;9.046;2023-11-22T02:17:42;6.60;99.90
44705;DHT22;30431;48.520;9.046;2023-11-22T02:20:11;6.50;99.90
44705;DHT22;30431;48.520;9.046;2023-11-22T02:22:56;6.50;99.90
44705;DHT22;30431;48.520;9.046;2023-11-22T02:25:24;6.50;99.90
44705;DHT22;30431;48.520;9.046;2023-11-22T02:27:51;6.40;99.90
44705;DHT22;30431;48.520;9.046;2023-11-22T02:30:18;6.30;99.90
44705;DHT22;30431;48.520;9.046;2023-11-22T02:32:45;6.30;99.90
44705;DHT22;30431;48.520;9.046;2023-11-22T02:35:12;6.30;99.90
44705;DHT22;30431;48.520;9.046;2023-11-22T02:37:43;6.30;99.90
44705;DHT22;30431;48.520;9.046;2023-11-22T02:40:20;6.20;99.90
44705;DHT22;30431;48.520;9.046;2023-11-22T02:42:48;6.30;99.90
44705;DHT22;30431;48.520;9.046;2023-11-22T02:45:17;6.20;99.90
44705;DHT22;30431;48.520;9.046;2023-11-22T02:47:49;6.20;99.90
44705;DHT22;30431;48.520;9.046;2023-11-22T02:50:19;6.20;99.90
44705;DHT22;30431;48.520;9.046;2023-11-22T02:52:47;6.20;99.90
44705;DHT22;30431;48.520;9.046;2023-11-22T02:55:17;6.10;99.90
44705;DHT22;30431;48.520;9.046;2023-11-22T02:57:45;6.10;99.90
44705;DHT22;30431;48.520;9.046;2023-11-22T03:00:14;6.20;99.90
44705;DHT22;30431;48.520;9.046;2023-11-22T03:02:46;6.20;99.90
44705;DHT22;30431;48.520;9.046;2023-11-22T03:05:14;6.10;99.70
44705;DHT22;30431;48.520;9.046;2023-11-22T03:07:43;6.10;99.60
44705;DHT22;30431;48.520;9.046;2023-11-22T03:10:10;6.00;99.70
44705;DHT22;30431;48.520;9.046;2023-11-22T03:12:37;5.90;99.80
44705;DHT22;30431;48.520;9.046;2023-11-22T03:15:05;5.90;99.80
44705;DHT22;30431;48.520;9.046;2023-11-22T03:17:34;5.90;99.80
44705;DHT22;30431;48.520;9.046;2023-11-22T03:20:02;5.80;99.20
44705;DHT22;30431;48.520;9.046;2023-11-22T03:22:29;5.70;98.90
44705;DHT22;30431;48.520;9.046;2023-11-22T03:25:01;5.60;98.90
44705;DHT22;30431;48.520;9.046;2023-11-22T03:27:29;5.60;98.50
44705;DHT22;30431;48.520;9.046;2023-11-22T03:29:59;5.40;98.70
44705;DHT22;30431;48.520;9.046;2023-11-22T03:32:26;5.40;98.70
44705;DHT22;30431;48.520;9.046;2023-11-22T03:34:56;5.30;98.70
44705;DHT22;30431;48.520;9.046;2023-11-22T03:37:24;5.20;98.40
44705;DHT22;30431;48.520;9.046;2023-11-22T03:39:51;5.10;98.60
44705;DHT22;30431;48.520;9.046;2023-11-22T03:42:22;5.10;98.90
44705;DHT22;30431;48.520;9.046;2023-11-22T03:44:49;5.00;98.90
44705;DHT22;30431;48.520;9.046;2023-11-22T03:47:17;4.90;98.40
44705;DHT22;30431;48.520;9.046;2023-11-22T03:49:47;4.90;98.60
44705;DHT22;30431;48.520;9.046;2023-11-22T03:52:14;4.90;98.60
44705;DHT22;30431;48.520;9.046;2023-11-22T03:54:43;4.80;98.20
44705;DHT22;30431;48.520;9.046;2023-11-22T03:57:10;4.80;98.70
44705;DHT22;30431;48.520;9.046;2023-11-22T03:59:40;4.70;98.20
44705;DHT22;30431;48.520;9.046;2023-11-22T04:02:07;4.70;98.60
44705;DHT22;30431;48.520;9.046;2023-11-22T04:04:37;4.60;98.40
44705;DHT22;30431;48.520;9.046;2023-11-22T04:07:07;4.60;98.50
44705;DHT22;30431;48.520;9.046;2023-11-22T04:09:36;4.60;98.80
44705;DHT22;30431;48.520;9.046;2023-11-22T04:12:03;4.60;98.80
44705;DHT22;30431;48.520;9.046;2023-11-22T04:14:31;4.60;98.60
44705;DHT22;30431;48.520;9.046;2023-11-22T04:17:02;4.60;98.60
44705;DHT22;30431;48.520;9.046;2023-11-22T04:19:30;4.50;98.60
44705;DHT22;30431;48.520;9.046;2023-11-22T04:21:57;4.50;99.00
44705;DHT22;30431;48.520;9.046;2023-11-22T04:24:26;4.50;99.00
44705;DHT22;30431;48.520;9.046;2023-11-22T04:26:53;4.40;98.50
44705;DHT22;30431;48.520;9.046;2023-11-22T04:29:20;4.50;98.80
44705;DHT22;30431;48.520;9.046;2023-11-22T04:31:47;4.40;98.40
44705;DHT22;30431;48.520;9.046;2023-11-22T04:34:14;4.40;98.90
44705;DHT22;30431;48.520;9.046;2023-11-22T04:36:41;4.50;98.80
44705;DHT22;30431;48.520;9.046;2023-11-22T04:39:08;4.50;98.00
44705;DHT22;30431;48.520;9.046;2023-11-22T04:41:36;4.60;98.30
44705;DHT22;30431;48.520;9.046;2023-11-22T04:44:06;4.50;98.00
44705;DHT22;30431;48.520;9.046;2023-11-22T04:46:33;4.60;98.30
44705;DHT22;30431;48.520;9.046;2023-11-22T04:49:03;4.60;97.90
44705;DHT22;30431;48.520;9.046;2023-11-22T04:51:34;4.60;98.00
44705;DHT22;30431;48.520;9.046;2023-11-22T04:54:01;4.60;97.40
44705;DHT22;30431;48.520;9.046;2023-11-22T04:56:30;4.60;97.60
44705;DHT22;30431;48.520;9.046;2023-11-22T04:59:00;4.70;98.10
44705;DHT22;30431;48.520;9.046;2023-11-22T05:01:33;4.70;97.50
44705;DHT22;30431;48.520;9.046;2023-11-22T05:04:02;4.70;97.30
44705;DHT22;30431;48.520;9.046;2023-11-22T05:06:32;4.70;97.50
44705;DHT22;30431;48.520;9.046;2023-11-22T05:08:59;4.70;97.30
44705;DHT22;30431;48.520;9.046;2023-11-22T05:11:31;4.70;97.50
44705;DHT22;30431;48.520;9.046;2023-11-22T05:14:01;4.80;96.50
44705;DHT22;30431;48.520;9.046;2023-11-22T05:16:30;4.70;96.30
44705;DHT22;30431;48.520;9.046;2023-11-22T05:19:02;4.70;95.80
44705;DHT22;30431;48.520;9.046;2023-11-22T05:21:29;4.70;95.90
44705;DHT22;30431;48.520;9.046;2023-11-22T05:23:56;4.70;96.00
44705;DHT22;30431;48.520;9.046;2023-11-22T05:26:23;4.70;95.50
44705;DHT22;30431;48.520;9.046;2023-11-22T05:28:51;4.70;95.60
44705;DHT22;30431;48.520;9.046;2023-11-22T05:31:23;4.60;95.60
44705;DHT22;30431;48.520;9.046;2023-11-22T05:33:53;4.60;96.00
44705;DHT22;30431;48.520;9.046;2023-11-22T05:36:20;4.60;95.80
44705;DHT22;30431;48.520;9.046;2023-11-22T05:38:47;4.70;96.10
44705;DHT22;30431;48.520;9.046;2023-11-22T05:41:14;4.60;96.60
44705;DHT22;30431;48.520;9.046;2023-11-22T05:43:42;4.70;96.60
44705;DHT22;30431;48.520;9.046;2023-11-22T05:46:09;4.80;95.80
44705;DHT22;30431;48.520;9.046;2023-11-22T05:48:39;4.80;94.80
44705;DHT22;30431;48.520;9.046;2023-11-22T05:51:06;4.70;95.00
44705;DHT22;30431;48.520;9.046;2023-11-22T05:53:37;4.70;95.30
44705;DHT22;30431;48.520;9.046;2023-11-22T05:56:04;4.70;94.90
44705;DHT22;30431;48.520;9.046;2023-11-22T05:58:37;4.70;95.00
44705;DHT22;30431;48.520;9.046;2023-11-22T06:01:08;4.70;95.40
44705;DHT22;30431;48.520;9.046;2023-11-22T06:03:37;4.70;94.70
44705;DHT22;30431;48.520;9.046;2023-11-22T06:06:07;4.60;95.00
44705;DHT22;30431;48.520;9.046;2023-11-22T06:08:35;4.50;95.10
44705;DHT22;30431;48.520;9.046;2023-11-22T06:11:02;4.40;95.00
44705;DHT22;30431;48.520;9.046;2023-11-22T06:13:33;4.40;95.30
44705;DHT22;30431;48.520;9.046;2023-11-22T06:16:00;4.40;94.90
44705;DHT22;30431;48.520;9.046;2023-11-22T06:18:27;4.40;95.40
44705;DHT22;30431;48.520;9.046;2023-11-22T06:20:57;4.40;95.10
44705;DHT22;30431;48.520;9.046;2023-11-22T06:23:24;4.40;94.70
44705;DHT22;30431;48.520;9.046;2023-11-22T06:25:53;4.40;95.10
44705;DHT22;30431;48.520;9.046;2023-11-22T06:28:23;4.30;94.40
44705;DHT22;30431;48.520;9.046;2023-11-22T06:30:50;4.30;94.60
44705;DHT22;30431;48.520;9.046;2023-11-22T06:33:25;4.40;94.80
44705;DHT22;30431;48.520;9.046;2023-11-22T06:35:55;4.40;94.90
44705;DHT22;30431;48.520;9.046;2023-11-22T06:38:31;4.50;94.90
44705;DHT22;30431;48.520;9.046;2023-11-22T06:41:00;4.50;95.00
44705;DHT22;30431;48.520;9.046;2023-11-22T06:43:30;4.50;95.40
44705;DHT22;30431;48.520;9.046;2023-11-22T06:45:59;4.60;95.00
44705;DHT22;30431;48.520;9.046;2023-11-22T06:48:27;4.60;94.50
44705;DHT22;30431;48.520;9.046;2023-11-22T06:50:54;4.50;94.20
44705;DHT22;30431;48.520;9.046;2023-11-22T06:53:21;4.50;93.90
44705;DHT22;30431;48.520;9.046;2023-11-22T06:55:49;4.40;94.00
44705;DHT22;30431;48.520;9.046;2023-11-22T06:58:16;4.50;93.80
44705;DHT22;30431;48.520;9.046;2023-11-22T07:00:47;4.30;94.20
44705;DHT22;30431;48.520;9.046;2023-11-22T07:03:15;4.40;94.30
44705;DHT22;30431;48.520;9.046;2023-11-22T07:05:45;4.30;94.20
44705;DHT22;30431;48.520;9.046;2023-11-22T07:08:12;4.40;94.50
44705;DHT22;30431;48.520;9.046;2023-11-22T07:10:39;4.40;95.20
44705;DHT22;30431;48.520;9.046;2023-11-22T07:13:24;4.30;94.20
44705;DHT22;30431;48.520;9.046;2023-11-22T07:15:53;4.30;94.20
44705;DHT22;30431;48.520;9.046;2023-11-22T07:18:21;4.20;93.90
44705;DHT22;30431;48.520;9.046;2023-11-22T07:20:56;4.30;94.60
44705;DHT22;30431;48.520;9.046;2023-11-22T07:23:23;4.20;94.20
44705;DHT22;30431;48.520;9.046;2023-11-22T07:26:01;4.30;94.20
44705;DHT22;30431;48.520;9.046;2023-11-22T07:28:28;4.40;94.30
44705;DHT22;30431;48.520;9.046;2023-11-22T07:30:57;4.30;94.20
44705;DHT22;30431;48.520;9.046;2023-11-22T07:33:25;4.30;94.10
44705;DHT22;30431;48.520;9.046;2023-11-22T07:35:53;4.30;94.50
44705;DHT22;30431;48.520;9.046;2023-11-22T07:38:20;4.30;94.30
44705;DHT22;30431;48.520;9.046;2023-11-22T07:40:50;4.40;94.30
44705;DHT22;30431;48.520;9.046;2023-11-22T07:43:17;4.40;94.20
44705;DHT22;30431;48.520;9.046;2023-11-22T07:45:47;4.40;93.90
44705;DHT22;30431;48.520;9.046;2023-11-22T07:48:18;4.50;93.90
44705;DHT22;30431;48.520;9.046;2023-11-22T07:50:45;4.40;94.00
44705;DHT22;30431;48.520;9.046;2023-11-22T07:53:18;4.50;94.20
44705;DHT22;30431;48.520;9.046;2023-11-22T07:55:47;4.40;94.70
44705;DHT22;30431;48.520;9.046;2023-11-22T07:58:18;4.40;94.90
44705;DHT22;30431;48.520;9.046;2023-11-22T08:00:47;4.40;95.00
44705;DHT22;30431;48.520;9.046;2023-11-22T08:03:14;4.40;95.20
44705;DHT22;30431;48.520;9.046;2023-11-22T08:05:45;4.40;95.30
44705;DHT22;30431;48.520;9.046;2023-11-22T08:08:15;4.40;95.80
44705;DHT22;30431;48.520;9.046;2023-11-22T08:10:44;4.50;96.20
44705;DHT22;30431;48.520;9.046;2023-11-22T08:13:11;4.50;95.60
44705;DHT22;30431;48.520;9.046;2023-11-22T08:15:38;4.60;95.70
44705;DHT22;30431;48.520;9.046;2023-11-22T08:18:08;4.50;95.90
44705;DHT22;30431;48.520;9.046;2023-11-22T08:20:37;4.60;95.90
44705;DHT22;30431;48.520;9.046;2023-11-22T08:23:04;4.50;95.40
44705;DHT22;30431;48.520;9.046;2023-11-22T08:25:33;4.40;95.70
44705;DHT22;30431;48.520;9.046;2023-11-22T08:28:00;4.50;95.40
44705;DHT22;30431;48.520;9.046;2023-11-22T08:30:30;4.50;95.60
44705;DHT22;30431;48.520;9.046;2023-11-22T08:33:02;4.50;95.90
44705;DHT22;30431;48.520;9.046;2023-11-22T08:35:29;4.50;95.20
44705;DHT22;30431;48.520;9.046;2023-11-22T08:37:58;4.60;95.20
44705;DHT22;30431;48.520;9.046;2023-11-22T08:40:25;4.60;94.90
44705;DHT22;30431;48.520;9.046;2023-11-22T08:42:53;4.60;95.10
44705;DHT22;30431;48.520;9.046;2023-11-22T08:45:20;4.60;95.20
44705;DHT22;30431;48.520;9.046;2023-11-22T08:47:47;4.50;94.50
44705;DHT22;30431;48.520;9.046;2023-11-22T08:50:21;4.50;94.50
44705;DHT22;30431;48.520;9.046;2023-11-22T08:52:49;4.40;94.40
44705;DHT22;30431;48.520;9.046;2023-11-22T08:55:20;4.30;93.90
44705;DHT22;30431;48.520;9.046;2023-11-22T08:57:50;4.20;94.00
44705;DHT22;30431;48.520;9.046;2023-11-22T09:00:20;4.20;94.30
44705;DHT22;30431;48.520;9.046;2023-11-22T09:02:50;4.20;94.20
44705;DHT22;30431;48.520;9.046;2023-11-22T09:05:17;4.20;95.10
44705;DHT22;30431;48.520;9.046;2023-11-22T09:07:46;4.40;94.20
44705;DHT22;30431;48.520;9.046;2023-11-22T09:10:15;4.30;94.10
44705;DHT22;30431;48.520;9.046;2023-11-22T09:12:47;4.30;94.20
44705;DHT22;30431;48.520;9.046;2023-11-22T09:15:18;4.20;94.20
44705;DHT22;30431;48.520;9.046;2023-11-22T09:17:53;4.20;94.60
44705;DHT22;30431;48.520;9.046;2023-11-22T09:20:20;4.20;94.40
44705;DHT22;30431;48.520;9.046;2023-11-22T09:22:54;4.20;94.30
44705;DHT22;30431;48.520;9.046;2023-11-22T09:25:24;4.30;94.20
44705;DHT22;30431;48.520;9.046;2023-11-22T09:27:53;4.10;94.10
44705;DHT22;30431;48.520;9.046;2023-11-22T09:30:28;4.20;94.60
44705;DHT22;30431;48.520;9.046;2023-11-22T09:33:14;4.20;94.40
44705;DHT22;30431;48.520;9.046;2023-11-22T09:35:43;4.20;94.00
44705;DHT22;30431;48.520;9.046;2023-11-22T09:38:11;4.10;94.50
44705;DHT22;30431;48.520;9.046;2023-11-22T09:40:48;4.00;94.60
44705;DHT22;30431;48.520;9.046;2023-11-22T09:43:18;3.90;94.70
44705;DHT22;30431;48.520;9.046;2023-11-22T09:45:48;4.00;94.90
44705;DHT22;30431;48.520;9.046;2023-11-22T09:48:23;4.10;94.60
44705;DHT22;30431;48.520;9.046;2023-11-22T09:53:52;4.20;94.50
44705;DHT22;30431;48.520;9.046;2023-11-22T09:56:24;4.30;94.50
44705;DHT22;30431;48.520;9.046;2023-11-22T09:58:57;4.40;94.40
44705;DHT22;30431;48.520;9.046;2023-11-22T10:01:24;4.40;94.60
44705;DHT22;30431;48.520;9.046;2023-11-22T10:03:51;4.40;94.40
44705;DHT22;30431;48.520;9.046;2023-11-22T10:06:19;4.40;94.40
44705;DHT22;30431;48.520;9.046;2023-11-22T10:08:49;4.40;94.50
44705;DHT22;30431;48.520;9.046;2023-11-22T10:11:22;4.60;94.30
44705;DHT22;30431;48.520;9.046;2023-11-22T10:13:51;4.60;93.90
44705;DHT22;30431;48.520;9.046;2023-11-22T10:16:18;4.60;93.80
44705;DHT22;30431;48.520;9.046;2023-11-22T10:18:48;4.60;93.90
44705;DHT22;30431;48.520;9.046;2023-11-22T10:21:26;4.60;94.40
44705;DHT22;30431;48.520;9.046;2023-11-22T10:23:55;4.60;94.10
44705;DHT22;30431;48.520;9.046;2023-11-22T10:26:27;4.40;94.30
44705;DHT22;30431;48.520;9.046;2023-11-22T10:28:58;4.30;94.40
44705;DHT22;30431;48.520;9.046;2023-11-22T10:31:25;4.30;95.00
44705;DHT22;30431;48.520;9.046;2023-11-22T10:33:55;4.30;94.60
44705;DHT22;30431;48.520;9.046;2023-11-22T10:36:25;4.40;95.00
44705;DHT22;30431;48.520;9.046;2023-11-22T10:38:54;4.50;94.60
44705;DHT22;30431;48.520;9.046;2023-11-22T10:41:21;4.60;94.50
44705;DHT22;30431;48.520;9.046;2023-11-22T10:43:52;4.60;94.20
44705;DHT22;30431;48.520;9.046;2023-11-22T10:46:27;4.60;94.20
44705;DHT22;30431;48.520;9.046;2023-11-22T10:48:55;4.70;94.50
44705;DHT22;30431;48.520;9.046;2023-11-22T10:51:26;4.70;94.10
44705;DHT22;30431;48.520;9.046;2023-11-22T10:53:58;4.60;94.00
44705;DHT22;30431;48.520;9.046;2023-11-22T10:56:27;4.60;94.30
44705;DHT22;30431;48.520;9.046;2023-11-22T10:58:58;4.60;94.40
44705;DHT22;30431;48.520;9.046;2023-11-22T11:01:29;4.60;94.30
44705;DHT22;30431;48.520;9.046;2023-11-22T11:04:02;4.70;94.20
44705;DHT22;30431;48.520;9.046;2023-11-22T11:06:34;4.60;94.10
44705;DHT22;30431;48.520;9.046;2023-11-22T11:09:06;4.90;94.10
44705;DHT22;30431;48.520;9.046;2023-11-22T11:11:37;4.90;94.00
44705;DHT22;30431;48.520;9.046;2023-11-22T11:14:08;5.00;94.00
44705;DHT22;30431;48.520;9.046;2023-11-22T11:16:38;5.10;93.70
44705;DHT22;30431;48.520;9.046;2023-11-22T11:19:10;5.20;93.60
44705;DHT22;30431;48.520;9.046;2023-11-22T11:21:39;5.10;93.30
44705;DHT22;30431;48.520;9.046;2023-11-22T11:24:06;5.10;93.30
44705;DHT22;30431;48.520;9.046;2023-11-22T11:26:33;5.00;93.50
44705;DHT22;30431;48.520;9.046;2023-11-22T11:29:03;4.90;93.30
44705;DHT22;30431;48.520;9.046;2023-11-22T11:31:32;4.70;93.50
44705;DHT22;30431;48.520;9.046;2023-11-22T11:34:10;4.80;94.00
44705;DHT22;30431;48.520;9.046;2023-11-22T11:36:38;4.70;94.10
44705;DHT22;30431;48.520;9.046;2023-11-22T11:39:07;4.70;93.90
44705;DHT22;30431;48.520;9.046;2023-11-22T11:41:46;4.60;94.00
44705;DHT22;30431;48.520;9.046;2023-11-22T11:44:14;4.70;94.00
44705;DHT22;30431;48.520;9.046;2023-11-22T11:46:43;4.70;94.00
44705;DHT22;30431;48.520;9.046;2023-11-22T11:49:13;4.70;94.00
44705;DHT22;30431;48.520;9.046;2023-11-22T11:51:41;4.70;94.20
44705;DHT22;30431;48.520;9.046;2023-11-22T11:54:12;4.70;94.10
44705;DHT22;30431;48.520;9.046;2023-11-22T11:56:44;4.80;94.50
44705;DHT22;30431;48.520;9.046;2023-11-22T11:59:12;4.80;94.90
44705;DHT22;30431;48.520;9.046;2023-11-22T12:01:41;4.90;94.00
44705;DHT22;30431;48.520;9.046;2023-11-22T12:04:09;4.90;94.20
44705;DHT22;30431;48.520;9.046;2023-11-22T12:06:35;5.00;94.20
44705;DHT22;30431;48.520;9.046;2023-11-22T12:09:09;4.80;94.10
44705;DHT22;30431;48.520;9.046;2023-11-22T12:11:35;4.60;93.80
44705;DHT22;30431;48.520;9.046;2023-11-22T12:14:04;4.50;94.20
44705;DHT22;30431;48.520;9.046;2023-11-22T12:16:35;4.50;94.20
44705;DHT22;30431;48.520;9.046;2023-11-22T12:19:04;4.50;94.30
44705;DHT22;30431;48.520;9.046;2023-11-22T12:21:33;4.50;94.20
44705;DHT22;30431;48.520;9.046;2023-11-22T12:24:02;4.40;94.40
44705;DHT22;30431;48.520;9.046;2023-11-22T12:26:32;4.50;94.20
44705;DHT22;30431;48.520;9.046;2023-11-22T12:29:02;4.40;94.20
44705;DHT22;30431;48.520;9.046;2023-11-22T12:31:32;4.40;94.60
44705;DHT22;30431;48.520;9.046;2023-11-22T12:34:04;4.50;94.40
44705;DHT22;30431;48.520;9.046;2023-11-22T12:36:33;4.50;94.30
44705;DHT22;30431;48.520;9.046;2023-11-22T12:39:07;4.60;94.20
44705;DHT22;30431;48.520;9.046;2023-11-22T12:41:41;4.50;94.10
44705;DHT22;30431;48.520;9.046;2023-11-22T12:44:11;4.50;94.20
44705;DHT22;30431;48.520;9.046;2023-11-22T12:49:16;4.40;94.10
44705;DHT22;30431;48.520;9.046;2023-11-22T12:51:50;4.30;94.00
44705;DHT22;30431;48.520;9.046;2023-11-22T12:54:20;4.30;93.90
44705;DHT22;30431;48.520;9.046;2023-11-22T12:56:51;4.30;94.30
44705;DHT22;30431;48.520;9.046;2023-11-22T12:59:21;4.30;94.10
44705;DHT22;30431;48.520;9.046;2023-11-22T13:01:50;4.30;93.90
44705;DHT22;30431;48.520;9.046;2023-11-22T13:04:20;4.20;93.80
44705;DHT22;30431;48.520;9.046;2023-11-22T13:06:47;4.20;94.10
44705;DHT22;30431;48.520;9.046;2023-11-22T13:09:14;4.20;93.90
44705;DHT22;30431;48.520;9.046;2023-11-22T13:11:43;4.30;94.00
44705;DHT22;30431;48.520;9.046;2023-11-22T13:14:13;4.40;94.20
44705;DHT22;30431;48.520;9.046;2023-11-22T13:16:43;4.50;94.30
44705;DHT22;30431;48.520;9.046;2023-11-22T13:19:14;4.50;93.80
44705;DHT22;30431;48.520;9.046;2023-11-22T13:21:41;4.60;93.70
44705;DHT22;30431;48.520;9.046;2023-11-22T13:24:08;4.60;93.50
44705;DHT22;30431;48.520;9.046;2023-11-22T13:26:36;4.60;93.50
44705;DHT22;30431;48.520;9.046;2023-11-22T13:29:03;4.50;93.70
44705;DHT22;30431;48.520;9.046;2023-11-22T13:31:30;4.50;93.60
44705;DHT22;30431;48.520;9.046;2023-11-22T13:33:57;4.40;93.80
44705;DHT22;30431;48.520;9.046;2023-11-22T13:36:24;4.50;93.70
44705;DHT22;30431;48.520;9.046;2023-11-22T13:38:51;4.40;93.50
44705;DHT22;30431;48.520;9.046;2023-11-22T13:41:19;4.30;93.20
44705;DHT22;30431;48.520;9.046;2023-11-22T13:43:46;4.40;93.40
44705;DHT22;30431;48.520;9.046;2023-11-22T13:46:15;4.50;93.30
44705;DHT22;30431;48.520;9.046;2023-11-22T13:48:47;4.40;93.20
44705;DHT22;30431;48.520;9.046;2023-11-22T13:51:14;4.40;93.70
44705;DHT22;30431;48.520;9.046;2023-11-22T13:53:43;4.50;93.70
44705;DHT22;30431;48.520;9.046;2023-11-22T13:56:16;4.60;92.90
44705;DHT22;30431;48.520;9.046;2023-11-22T13:58:45;4.60;92.80
44705;DHT22;30431;48.520;9.046;2023-11-22T14:01:37;4.50;92.60
44705;DHT22;30431;48.520;9.046;2023-11-22T14:04:06;4.50;92.90
44705;DHT22;30431;48.520;9.046;2023-11-22T14:06:36;4.50;92.90
44705;DHT22;30431;48.520;9.046;2023-11-22T14:09:05;4.50;92.70
44705;DHT22;30431;48.520;9.046;2023-11-22T14:11:38;4.60;92.70
44705;DHT22;30431;48.520;9.046;2023-11-22T14:14:05;4.50;92.80
44705;DHT22;30431;48.520;9.046;2023-11-22T14:16:32;4.50;93.00
44705;DHT22;30431;48.520;9.046;2023-11-22T14:19:01;4.50;92.90
44705;DHT22;30431;48.520;9.046;2023-11-22T14:21:33;4.50;93.10
44705;DHT22;30431;48.520;9.046;2023-11-22T14:24:03;4.50;92.90
44705;DHT22;30431;48.520;9.046;2023-11-22T14:26:35;4.50;92.90
44705;DHT22;30431;48.520;9.046;2023-11-22T14:29:02;4.50;93.00
44705;DHT22;30431;48.520;9.046;2023-11-22T14:31:30;4.40;92.70
44705;DHT22;30431;48.520;9.046;2023-11-22T14:33:57;4.40;92.90
44705;DHT22;30431;48.520;9.046;2023-11-22T14:36:27;4.30;92.70
44705;DHT22;30431;48.520;9.046;2023-11-22T14:38:54;4.20;92.70
44705;DHT22;30431;48.520;9.046;2023-11-22T14:41:23;4.30;92.80
44705;DHT22;30431;48.520;9.046;2023-11-22T14:43:53;4.30;92.70
44705;DHT22;30431;48.520;9.046;2023-11-22T14:46:20;4.30;92.40
44705;DHT22;30431;48.520;9.046;2023-11-22T14:48:47;4.30;93.00
44705;DHT22;30431;48.520;9.046;2023-11-22T14:51:15;4.20;92.70
44705;DHT22;30431;48.520;9.046;2023-11-22T14:53:42;4.30;93.00
44705;DHT22;30431;48.520;9.046;2023-11-22T14:56:12;4.30;91.70
44705;DHT22;30431;48.520;9.046;2023-11-22T14:58:39;4.20;90.30
44705;DHT22;30431;48.520;9.046;2023-11-22T15:01:06;4.20;90.20
44705;DHT22;30431;48.520;9.046;2023-11-22T15:03:35;4.30;90.60
44705;DHT22;30431;48.520;9.046;2023-11-22T15:06:02;4.40;89.70
44705;DHT22;30431;48.520;9.046;2023-11-22T15:08:29;4.40;90.10
44705;DHT22;30431;48.520;9.046;2023-11-22T15:10:59;4.30;89.20
44705;DHT22;30431;48.520;9.046;2023-11-22T15:13:26;4.20;90.40
44705;DHT22;30431;48.520;9.046;2023-11-22T15:15:54;4.10;91.60
44705;DHT22;30431;48.520;9.046;2023-11-22T15:18:23;4.20;92.00
44705;DHT22;30431;48.520;9.046;2023-11-22T15:20:51;4.30;92.00
44705;DHT22;30431;48.520;9.046;2023-11-22T15:23:19;4.40;91.90
44705;DHT22;30431;48.520;9.046;2023-11-22T15:25:49;4.40;90.70
44705;DHT22;30431;48.520;9.046;2023-11-22T15:28:18;4.30;90.20
44705;DHT22;30431;48.520;9.046;2023-11-22T15:30:52;4.30;90.00
44705;DHT22;30431;48.520;9.046;2023-11-22T15:33:29;4.30;90.10
44705;DHT22;30431;48.520;9.046;2023-11-22T15:35:57;4.20;90.20
44705;DHT22;30431;48.520;9.046;2023-11-22T15:38:31;4.20;90.60
44705;DHT22;30431;48.520;9.046;2023-11-22T15:40:58;4.20;90.90
44705;DHT22;30431;48.520;9.046;2023-11-22T15:43:44;4.20;90.90
44705;DHT22;30431;48.520;9.046;2023-11-22T15:46:13;4.20;91.70
44705;DHT22;30431;48.520;9.046;2023-11-22T15:48:41;4.30;91.50
44705;DHT22;30431;48.520;9.046;2023-11-22T15:51:11;4.30;91.20
44705;DHT22;30431;48.520;9.046;2023-11-22T15:53:45;4.30;91.40
44705;DHT22;30431;48.520;9.046;2023-11-22T15:56:13;4.30;90.80
44705;DHT22;30431;48.520;9.046;2023-11-22T15:58:44;4.40;90.70
44705;DHT22;30431;48.520;9.046;2023-11-22T16:01:11;4.40;90.60
44705;DHT22;30431;48.520;9.046;2023-11-22T16:03:39;4.40;90.50